Station: Croker Island Airport  

  Atmospheric Gas Attenuation - ITU Rec 676-11   ----------------- dB/100km -----------------
Date Time Temp RH % AH g/m3 Dew Point Wind Direction Speed kph Gust kph Barometer mB Rainfall Since 9am 24GHz 47GHz 76GHz 122GHz 134GHz 241GHz
08/05 12:00 30.8 47 14.88 18.5 17 28 1011.1 0 31.8 30.5 54.5 143.8 152.4 529.2
08/05 11:50 30.4 50 15.5 18.8 11 20 1011.1 0 33.1 31.6 57.2 151.1 161.1 559.8
08/05 11:40 30.9 48 15.28 18.9 15 19 1011.1 0 32.6 31.0 55.9 147.8 157.3 546.4
08/05 11:30 30.8 48 15.2 18.8 15 24 1011.3 0 32.5 31.0 55.7 147.2 156.5 543.6
08/05 11:20 30.1 49 14.94 18.5 19 22 1011.5 0 32.0 30.8 55.2 145.8 154.5 536.8
08/05 11:10 30.2 49 15.02 18.6 17 22 1011.6 0 32.1 30.9 55.4 146.4 155.4 539.7
08/05 11:00 30.2 49 15.02 18.6 15 24 1011.8 0 32.1 30.9 55.5 146.5 155.4 539.8
08/05 10:50 29.6 50 14.84 18.3 19 24 1011.9 0 31.8 30.8 55.2 145.7 154.3 535.8
08/05 10:40 29.4 49 14.39 17.8 15 20 1011.9 0 30.9 30.2 53.5 141.3 148.9 516.9
08/05 10:30 29.2 51 14.81 18.3 17 28 1012 0 31.8 30.9 55.3 146.1 154.7 537.2
08/05 10:20 29 51 14.65 18.1 17 24 1012.2 0 31.4 30.8 54.8 144.8 153.0 531.4
08/05 10:10 28.7 52 14.7 18.1 19 24 1012.2 0 31.6 30.9 55.3 145.9 154.3 535.7
08/05 10:00 28.7 52 14.7 17.9 17 28 1012.2 0 31.6 30.9 55.3 145.9 154.3 535.7
08/05 09:50 28.3 52 14.38 17.5 22 26 1012.2 0 30.9 30.6 54.3 143.2 150.9 523.8
08/05 09:40 27.9 51 13.79 17.1 22 28 1012.2 0 29.7 29.8 52.2 137.7 144.0 499.8
08/05 09:30 28.1 54 14.77 17.9 20 28 1012.2 0 31.8 31.3 56.0 147.8 156.4 543.0
08/05 09:20 27.8 52 13.99 17.3 20 24 1012.2 0 30.2 30.1 53.1 140.0 146.8 509.4
08/05 09:10 27.7 56 14.98 18.1 19 26 1012.1 0 32.2 31.7 57.1 150.8 160.0 555.5
08/05 09:00 27.6 57 15.16 18.3 17 26 1012.1 0 32.6 32.1 57.9 152.9 162.6 564.6
08/05 08:50 27.3 58 15.18 18.3 15 19 1011.9 0 32.7 32.2 58.2 153.7 163.5 567.6
08/05 08:40 27.3 59 15.44 18.8 17 20 1011.8 0 33.2 32.6 59.3 156.6 167.0 579.9
08/05 08:30 26.8 62 15.78 18.9 13 20 1011.8 0 34.0 33.4 61.1 161.4 172.8 599.9
08/05 08:20 26.6 60 15.1 18.4 19 20 1011.9 0 32.6 32.3 58.4 154.2 163.9 569.0
08/05 08:10 26.3 63 15.6 18.7 15 19 1011.8 0 33.6 33.3 60.7 160.4 171.4 595.1
08/05 08:00 25.9 65 15.74 18.8 13 22 1011.7 0 34.0 33.7 61.6 162.8 174.2 604.9
08/05 07:50 25.6 65 15.47 18.7 11 15 1011.7 0 33.4 33.3 60.7 160.3 171.1 594.1
08/05 07:40 25.3 67 15.69 18.7 9 11 1011.7 0 33.9 33.8 61.9 163.5 174.9 607.2
08/05 07:30 24.7 69 15.62 18.6 9 17 1011.6 0 33.8 33.9 62.0 163.9 175.3 608.4
08/05 07:20 24.3 71 15.71 18.7 7 7 1011.5 0 34.1 34.3 62.8 165.8 177.5 616.0
08/05 07:10 23.8 72 15.49 18.4 7 9 1011.4 0 33.6 34.1 62.2 164.3 175.5 609.0
08/05 07:00 24 71 15.45 18.4 9 15 1011.3 0 33.5 33.9 61.8 163.4 174.4 605.4
08/05 06:50 24 71 15.45 18.4 7 9 1011.2 0 33.5 33.9 61.8 163.4 174.4 605.3
08/05 06:40 24.1 71 15.53 18.5 9 11 1011.2 0 33.7 34.0 62.1 164.1 175.3 608.5
08/05 06:30 24.1 71 15.53 18.5 9 15 1011.1 0 33.7 34.0 62.1 164.1 175.3 608.5
08/05 06:20 24.1 71 15.53 18.5 7 9 1011.1 0 33.7 34.0 62.1 164.1 175.3 608.5
08/05 06:10 24.3 71 15.71 18.7 7 11 1011.1 0 34.1 34.2 62.7 165.7 177.4 615.8
08/05 06:00 24.2 72 15.84 18.8 9 17 1011.1 0 34.3 34.5 63.4 167.5 179.5 623.1
08/05 05:50 24.2 72 15.84 18.8 9 17 1011.2 0 34.3 34.5 63.4 167.5 179.5 623.2
08/05 05:40 24.3 72 15.93 18.9 9 11 1011.1 0 34.5 34.6 63.7 168.3 180.6 626.8
08/05 05:30 24.4 71 15.8 18.8 11 22 1011.1 0 34.2 34.4 63.0 166.6 178.5 619.5
08/05 05:20 24.6 71 15.98 19 9 13 1011 0 34.6 34.6 63.7 168.2 180.6 626.8
08/05 05:10 24.6 71 15.98 19 11 15 1011 0 34.6 34.6 63.7 168.2 180.6 626.8
08/05 05:00 24.7 70 15.84 18.9 13 19 1011 0 34.3 34.3 63.0 166.4 178.3 619.0
08/05 04:50 24.6 71 15.98 19 11 19 1011 0 34.6 34.6 63.7 168.2 180.6 626.8
08/05 04:40 24.7 70 15.84 19 15 19 1010.9 0 34.3 34.3 63.0 166.4 178.3 619.0
08/05 04:30 24.6 72 16.2 19.2 11 19 1011 0 35.1 35.0 64.6 170.8 183.7 637.8
08/05 04:20 24.5 72 16.11 19.1 13 19 1010.9 0 34.9 34.9 64.3 169.9 182.7 634.1
08/05 04:10 24.6 72 16.2 19.2 11 15 1010.8 0 35.1 35.0 64.6 170.8 183.7 637.7
08/05 04:00 24.6 71 15.98 19 11 19 1011 0 34.6 34.6 63.7 168.2 180.6 626.8
08/05 03:50 24.6 71 15.98 19 11 17 1011 0 34.6 34.6 63.7 168.2 180.6 626.8
08/05 03:40 24.7 72 16.3 19.3 11 15 1011.1 0 35.3 35.1 65.0 171.8 184.9 642.1
08/05 03:30 24.5 74 16.56 19.6 9 19 1011 0 35.8 35.7 66.3 175.3 189.2 656.8
08/05 03:20 24.4 74 16.47 19.6 9 11 1011 0 35.7 35.5 66.0 174.4 188.1 653.1
08/05 03:10 24.3 73 16.15 19.3 6 7 1011 0 35.0 35.0 64.7 170.9 183.7 637.8
08/05 03:00 24.6 73 16.43 19.4 9 15 1011 0 35.6 35.4 65.6 173.5 187.1 649.4
08/05 02:50 24.6 72 16.2 19.2 9 11 1011.1 0 35.1 35.0 64.6 170.8 183.7 637.9
08/05 02:40 24.6 72 16.2 19.2 9 11 1011.1 0 35.1 35.0 64.6 170.8 183.7 637.9
08/05 02:30 24.5 73 16.34 19.3 9 13 1011.1 0 35.4 35.3 65.3 172.7 186.0 645.8
08/05 02:20 24.4 73 16.25 19.4 6 7 1011.1 0 35.2 35.2 65.0 171.8 185.0 642.1
08/05 02:10 24.5 73 16.34 19.3 7 9 1011.1 0 35.4 35.3 65.3 172.7 186.0 645.8
08/05 02:00 24.7 73 16.52 19.5 7 13 1011.2 0 35.7 35.5 66.0 174.4 188.1 653.2
08/05 01:50 24.6 73 16.43 19.4 7 11 1011.2 0 35.6 35.4 65.7 173.5 187.1 649.5
08/05 01:40 24.7 72 16.3 19.3 7 9 1011.3 0 35.3 35.1 65.0 171.8 185.0 642.2
08/05 01:30 24.9 71 16.25 19.3 9 17 1011.4 0 35.1 35.0 64.6 170.8 183.8 638.0
08/05 01:20 25.1 70 16.2 19.4 9 13 1011.5 0 35.0 34.8 64.2 169.8 182.6 633.9
08/05 01:10 25.3 70 16.39 19.6 7 11 1011.5 0 35.4 35.1 64.9 171.5 184.8 641.7
08/05 01:00 25.2 73 16.99 20 9 15 1011.5 0 36.7 36.2 67.6 178.8 193.8 672.8
08/05 00:50 25.4 71 16.71 19.9 9 13 1011.6 0 36.1 35.6 66.2 175.1 189.2 657.0
08/05 00:40 25.3 75 17.56 20.5 11 17 1011.7 0 37.9 37.2 70.1 185.4 201.9 701.2
08/05 00:30 25.5 75 17.76 20.7 9 13 1011.7 0 38.3 37.4 70.9 187.4 204.3 709.7
08/05 00:20 25.7 76 18.2 21.1 11 13 1011.7 0 39.2 38.2 72.7 192.2 210.3 730.6
08/05 00:10 26 77 18.75 21.8 13 15 1011.8 0 40.3 39.0 74.9 198.2 217.8 756.5
08/05 00:00 25.7 87 20.83 23.4 9 11 1011.9 0 44.8 43.2 85.2 225.4 251.1 872.3
07/05 23:50 25.8 90 21.67 24 6 7 1011.9 0 46.6 44.8 89.2 236.2 264.3 918.2
07/05 23:40 25.4 92 21.66 24.1 7 7 1011.9 0 46.6 45.0 89.6 237.3 265.6 922.6
07/05 23:30 24.9 93 21.29 23.7 7 9 1011.9 0 45.9 44.5 88.4 234.0 261.3 907.7
07/05 23:20 24.4 96 21.36 23.7 7 9 1012 0 46.1 44.9 89.3 236.5 264.3 917.9
07/05 23:10 23.7 93 19.89 22.6 6 6 1012 0 43.0 42.4 82.8 219.1 242.7 842.9
07/05 23:00 23.5 93 19.67 22.3 4 6 1012 0 42.6 42.0 81.9 216.8 239.8 832.8
07/05 22:50 23.7 92 19.68 22.3 2 2 1012 0 42.6 41.9 81.8 216.3 239.3 831.2
07/05 22:40 23.9 91 19.69 22.3 4 4 1012 0 42.6 41.9 81.6 215.9 238.8 829.5
07/05 22:30 24.1 90 19.69 22.4 4 4 1012 0 42.5 41.8 81.4 215.3 238.2 827.3
07/05 22:20 24.3 90 19.92 22.5 4 4 1012.1 0 43.0 42.1 82.3 217.7 241.2 837.9
07/05 22:10 24.5 90 20.14 22.7 4 4 1012.1 0 43.5 42.4 83.1 220.0 244.1 847.8
07/05 22:00 24.7 89 20.14 22.8 6 6 1012.1 0 43.4 42.3 82.9 219.4 243.4 845.6
07/05 21:50 24.8 89 20.26 22.8 6 6 1012.1 0 43.7 42.5 83.4 220.7 245.0 851.1
07/05 21:40 24.8 90 20.49 23 6 7 1012.1 0 44.2 43.0 84.5 223.7 248.7 863.9
07/05 21:30 24.8 90 20.49 23 6 9 1012.1 0 44.2 43.0 84.5 223.7 248.7 863.9
07/05 21:20 24.8 89 20.26 22.8 7 7 1012.1 0 43.7 42.5 83.4 220.7 245.0 851.1
07/05 21:10 24.8 87 19.8 22.6 7 7 1012.1 0 42.7 41.6 81.2 214.8 237.7 825.7
07/05 21:00 24.9 88 20.14 22.8 7 9 1012.1 0 43.4 42.2 82.7 218.9 242.8 843.3
07/05 20:50 25 86 19.8 22.6 6 7 1012.1 0 42.7 41.5 80.9 214.2 237.1 823.5
07/05 20:40 25.1 86 19.91 22.6 6 7 1012 0 42.9 41.7 81.4 215.3 238.5 828.4
07/05 20:30 25.2 85 19.79 22.5 7 9 1011.9 0 42.6 41.4 80.7 213.5 236.2 820.7
07/05 20:20 25.1 85 19.68 22.4 7 7 1011.9 0 42.4 41.2 80.2 212.3 234.8 815.7
07/05 20:10 24.9 85 19.46 22.2 7 9 1011.7 0 42.0 40.9 79.4 210.1 232.0 805.8
07/05 20:00 24.7 85 19.24 22 6 7 1011.6 0 41.5 40.6 78.5 207.8 229.2 795.9
07/05 19:50 24.9 84 19.23 22 4 6 1011.5 0 41.5 40.5 78.3 207.1 228.4 793.2
07/05 19:40 25 83 19.11 21.9 4 6 1011.4 0 41.2 40.2 77.6 205.3 226.2 785.7
07/05 19:30 25.3 81 18.96 21.8 6 7 1011.3 0 40.9 39.7 76.6 202.6 223.0 774.5

Last Refresh: 08-May-2026 12:08:30

Bureau of Meteorology